メインページ
METAR-TAF:

METAR-TAF

空港 :

ムンバイ, インド

チャトラパティ・シヴァージー国際空港

緯度: 19-07N, 経度: 072-51E, 海抜: 8m

現時点の気象観測

当レポートは26分前の23:00(UTC)に作成
南/南西の風 4kt
気温 28°C
湿度 70%
気圧 1008 hPa
視程: 3500m
高度2000ftの雲は散在している
煙霧

METAR: VABB 232300Z 21004KT 3500 HZ SCT020 28/22 Q1008 NOSIG

時間: 04:56 (23:26 UTC)

予報

当レポートは6時間26分前の17:00(UTC)に作成
予報は23日の 18時(UTC)から 24日の 24時(UTC)まで有効
東/南東の風 6kt
視程: 3000m
高度2000ftの雲は散在している
煙霧
24日の 04時(UTC)から 24日の 06時(UTC)まで徐々に
西の風 6kt
視程: 5000m
煙霧
24日の 07時(UTC)から 24日の 09時(UTC)まで徐々に
西の風 7kt、最大17ktの突風を伴う
24日の 13時(UTC)から 24日の 15時(UTC)まで徐々に
西の風 8kt
視程: 3000m
煙霧
24日の 19時(UTC)から 24日の 21時(UTC)まで徐々に
南東の風 5kt

TAF: VABB 231700Z 2318/2424 11006KT 3000 HZ SCT020 BECMG 2404/2406 27006KT 5000 HZ BECMG 2407/2409 26007G17KT BECMG 2413/2415 26008KT 3000 HZ BECMG 2419/2421 13005KT

4,000以上の空港の気象観測と天気予報(METAR報とTAF報)

利用可能な観測所は地図上に黄色い丸と赤い丸で示す。

丸の上にカーソルを重ねると観測所名を参照できる。

次にクリックすると気象観測と天気予報を参照できる。

マップの切り替え:黒色「×」印の緑ボタンをクリックして拡大、「-」印の緑ボタンをクリックして縮小、緑色の三角印をクリックして隣りの地図に切り替え


METAR-TAF: